Time;durP1;ratioP1;P1;durP2;ratioP2;P2;SDS_P1;SDS_P2;PMS_P1;PMS_P2;Temp;Humidity;BMP_temperature;BMP_pressure;BME280_temperature;BME280_humidity;BME280_pressure;Samples;Min_cycle;Max_cycle;Signal;HPM_P1;HPM_P2
2022/05/03 00:01:09;;;;;;;4.30;4.03;;;;;;;;;;4972315;28;20073;-84
2022/05/03 00:04:33;;;;;;;4.05;3.65;;;;;;;;;;4992346;28;20050;-85
2022/05/03 00:07:20;;;;;;;4.43;4.07;;;;;;;;;;4968019;28;20522;-85
2022/05/03 00:10:04;;;;;;;4.50;4.10;;;;;;;;;;4972085;28;20122;-84
2022/05/03 00:12:48;;;;;;;4.00;3.67;;;;;;;;;;4958391;28;20069;-84
2022/05/03 00:15:23;;;;;;;3.72;3.42;;;;;;;;;;4974207;28;20434;-84
2022/05/03 00:18:01;;;;;;;4.70;4.40;;;;;;;;;;4944911;28;20137;-84
2022/05/03 00:20:47;;;;;;;4.53;4.13;;;;;;;;;;4989393;28;20043;-84
2022/05/03 00:23:15;;;;;;;4.40;4.00;;;;;;;;;;4973941;28;20046;-84
2022/05/03 00:25:58;;;;;;;4.00;3.75;;;;;;;;;;4976668;28;20043;-84
2022/05/03 00:28:35;;;;;;;4.72;4.07;;;;;;;;;;4995142;28;20044;-84
2022/05/03 00:31:32;;;;;;;4.80;4.40;;;;;;;;;;4978136;28;20038;-84
2022/05/03 00:34:08;;;;;;;4.07;3.67;;;;;;;;;;4975149;28;20053;-84
2022/05/03 00:36:40;;;;;;;3.85;3.55;;;;;;;;;;4959676;28;20471;-84
2022/05/03 00:39:12;;;;;;;4.18;3.70;;;;;;;;;;4960067;28;20060;-85
2022/05/03 00:42:04;;;;;;;4.40;4.03;;;;;;;;;;4975690;28;20054;-84
2022/05/03 00:44:58;;;;;;;4.30;4.00;;;;;;;;;;4995390;28;20073;-84
2022/05/03 00:47:50;;;;;;;6.60;3.85;;;;;;;;;;5006955;28;20513;-84
2022/05/03 00:50:36;;;;;;;4.82;3.80;;;;;;;;;;4984250;28;20061;-85
2022/05/03 00:53:20;;;;;;;4.03;3.72;;;;;;;;;;4987806;28;20052;-85
2022/05/03 00:56:27;;;;;;;5.18;4.03;;;;;;;;;;4965461;28;20099;-84
2022/05/03 00:59:23;;;;;;;4.43;3.58;;;;;;;;;;5008956;28;20050;-84
2022/05/03 01:02:03;;;;;;;5.18;4.68;;;;;;;;;;4982403;28;20054;-84
2022/05/03 01:04:44;;;;;;;4.82;4.43;;;;;;;;;;4994399;28;20046;-85
2022/05/03 01:07:36;;;;;;;5.25;4.85;;;;;;;;;;4979985;28;20140;-84
2022/05/03 01:10:08;;;;;;;4.20;3.90;;;;;;;;;;4978036;28;20064;-85
2022/05/03 01:13:36;;;;;;;4.57;4.18;;;;;;;;;;4993090;28;20537;-85
2022/05/03 01:16:06;;;;;;;;;;;;;;;;;;4990079;28;20077;-84
2022/05/03 01:18:39;;;;;;;4.53;4.07;;;;;;;;;;4957952;28;20032;-84
2022/05/03 01:21:46;;;;;;;5.30;4.80;;;;;;;;;;5001457;28;20073;-84
2022/05/03 01:24:22;;;;;;;4.10;3.80;;;;;;;;;;5009258;28;20121;-84
2022/05/03 01:27:20;;;;;;;4.40;4.10;;;;;;;;;;4976487;28;20537;-84
2022/05/03 01:29:49;;;;;;;5.00;4.50;;;;;;;;;;4993166;28;20037;-83
2022/05/03 01:32:19;;;;;;;4.50;4.10;;;;;;;;;;4992357;28;20065;-84
2022/05/03 01:34:51;;;;;;;5.25;4.85;;;;;;;;;;4976642;28;20133;-84
2022/05/03 01:37:39;;;;;;;5.30;4.60;;;;;;;;;;5010256;28;20037;-84
2022/05/03 01:40:12;;;;;;;5.18;4.68;;;;;;;;;;4992853;28;20069;-84
2022/05/03 01:42:42;;;;;;;3.85;3.65;;;;;;;;;;4973826;28;20057;-84
2022/05/03 01:45:12;;;;;;;3.50;3.30;;;;;;;;;;4973704;28;20125;-85
2022/05/03 01:47:48;;;;;;;3.97;3.67;;;;;;;;;;4958059;28;20410;-84
2022/05/03 01:50:30;;;;;;;4.75;4.38;;;;;;;;;;4991795;28;20121;-84
2022/05/03 01:53:05;;;;;;;4.32;3.90;;;;;;;;;;4991115;28;20042;-84
2022/05/03 01:55:59;;;;;;;4.03;3.72;;;;;;;;;;4993931;28;20048;-84
2022/05/03 01:58:44;;;;;;;3.95;3.65;;;;;;;;;;5009364;28;20042;-84
2022/05/03 02:01:32;;;;;;;3.55;3.35;;;;;;;;;;5010488;28;20045;-84
2022/05/03 02:04:13;;;;;;;4.45;4.15;;;;;;;;;;4976215;28;20054;-84
2022/05/03 02:07:02;;;;;;;4.78;4.40;;;;;;;;;;4997409;28;20498;-84
2022/05/03 02:09:52;;;;;;;4.07;3.78;;;;;;;;;;4990388;28;20560;-84
2022/05/03 02:12:24;;;;;;;5.15;4.65;;;;;;;;;;4974049;28;20587;-83
2022/05/03 02:14:55;;;;;;;5.43;4.90;;;;;;;;;;4998945;28;20042;-84
2022/05/03 02:17:59;;;;;;;4.50;4.10;;;;;;;;;;4961103;28;20080;-84
2022/05/03 02:20:40;;;;;;;4.50;4.10;;;;;;;;;;4998809;28;20050;-84
2022/05/03 02:23:26;;;;;;;5.45;4.20;;;;;;;;;;4972545;28;20552;-84
2022/05/03 02:26:18;;;;;;;4.22;3.95;;;;;;;;;;4973456;28;20038;-84
2022/05/03 02:28:48;;;;;;;4.03;3.72;;;;;;;;;;4990106;28;20581;-84
2022/05/03 02:31:21;;;;;;;4.55;4.15;;;;;;;;;;4972603;28;20510;-84
2022/05/03 02:33:55;;;;;;;4.57;4.18;;;;;;;;;;4989661;28;20125;-84
2022/05/03 02:36:24;;;;;;;5.30;4.90;;;;;;;;;;4972762;28;20051;-84
2022/05/03 02:38:51;;;;;;;4.20;3.67;;;;;;;;;;4994289;28;20057;-84
2022/05/03 02:41:20;;;;;;;4.05;3.75;;;;;;;;;;4988805;28;20057;-84
2022/05/03 02:43:48;;;;;;;4.10;3.88;;;;;;;;;;4998691;28;20425;-84
2022/05/03 02:46:29;;;;;;;4.78;4.38;;;;;;;;;;5016323;28;20046;-84
2022/05/03 02:49:17;;;;;;;4.50;4.20;;;;;;;;;;4999206;28;20042;-85
2022/05/03 02:51:51;;;;;;;5.15;4.70;;;;;;;;;;5003064;28;20098;-84
2022/05/03 02:54:35;;;;;;;4.53;4.15;;;;;;;;;;4947844;28;20054;-84
2022/05/03 02:57:05;;;;;;;5.32;4.90;;;;;;;;;;4996679;28;20125;-84
2022/05/03 03:02:33;;;;;;;4.63;4.32;;;;;;;;;;4979070;28;20050;-83
2022/05/03 03:05:12;;;;;;;5.50;5.00;;;;;;;;;;4996901;28;20639;-83
2022/05/03 03:07:50;;;;;;;5.55;4.72;;;;;;;;;;4996886;28;20112;-83
2022/05/03 03:10:22;;;;;;;4.50;4.20;;;;;;;;;;4979379;28;20050;-83
2022/05/03 03:12:56;;;;;;;5.57;4.72;;;;;;;;;;4996736;28;20445;-84
2022/05/03 03:15:30;;;;;;;5.95;5.05;;;;;;;;;;4996665;28;20050;-83
2022/05/03 03:18:01;;;;;;;5.65;4.32;;;;;;;;;;4979704;28;20074;-84
2022/05/03 03:20:39;;;;;;;5.93;5.38;;;;;;;;;;4980256;28;20048;-83
2022/05/03 03:23:07;;;;;;;5.38;4.97;;;;;;;;;;4980094;28;20109;-82
2022/05/03 03:25:40;;;;;;;5.50;5.10;;;;;;;;;;5003592;28;20050;-82
2022/05/03 03:28:20;;;;;;;5.18;4.75;;;;;;;;;;4988366;28;20050;-84
2022/05/03 03:30:51;;;;;;;5.15;4.65;;;;;;;;;;4972649;28;20659;-83
2022/05/03 03:33:23;;;;;;;6.18;5.68;;;;;;;;;;4988981;28;20042;-83
2022/05/03 03:35:54;;;;;;;5.93;5.40;;;;;;;;;;4988289;28;20489;-84
2022/05/03 03:38:29;;;;;;;6.13;5.60;;;;;;;;;;4990916;28;20030;-83
2022/05/03 03:40:58;;;;;;;5.72;5.22;;;;;;;;;;4963307;28;20046;-84
2022/05/03 03:43:26;;;;;;;5.78;5.28;;;;;;;;;;4996045;28;20511;-83
2022/05/03 03:45:53;;;;;;;5.75;5.25;;;;;;;;;;4996279;28;20050;-84
2022/05/03 03:48:22;;;;;;;6.03;5.47;;;;;;;;;;4979057;28;20455;-83
2022/05/03 03:50:54;;;;;;;5.95;5.53;;;;;;;;;;4992925;28;20046;-83
2022/05/03 03:53:24;;;;;;;6.22;5.32;;;;;;;;;;4961905;28;20046;-83
2022/05/03 03:55:57;;;;;;;6.20;5.57;;;;;;;;;;4996789;28;20050;-83
2022/05/03 03:58:31;;;;;;;6.13;5.63;;;;;;;;;;4963589;28;20042;-83
2022/05/03 04:00:59;;;;;;;5.75;5.22;;;;;;;;;;4977589;28;20054;-83
2022/05/03 04:03:33;;;;;;;6.00;5.50;;;;;;;;;;4977218;28;20050;-82
2022/05/03 04:06:01;;;;;;;6.55;5.95;;;;;;;;;;4993721;28;20104;-84
2022/05/03 04:08:29;;;;;;;8.55;6.10;;;;;;;;;;4975736;28;20046;-84
2022/05/03 04:10:56;;;;;;;6.38;5.88;;;;;;;;;;4992803;28;20053;-84
2022/05/03 04:13:26;;;;;;;6.45;5.95;;;;;;;;;;4975560;28;20502;-82
2022/05/03 04:15:59;;;;;;;5.80;5.30;;;;;;;;;;4975608;28;20580;-82
2022/05/03 04:18:44;;;;;;;6.55;5.95;;;;;;;;;;4976142;28;20084;-83
2022/05/03 04:21:15;;;;;;;6.13;5.57;;;;;;;;;;4976317;28;20038;-83
2022/05/03 04:23:45;;;;;;;6.75;6.15;;;;;;;;;;4992955;28;20070;-83
2022/05/03 04:26:15;;;;;;;5.30;4.90;;;;;;;;;;4944155;28;20132;-83
2022/05/03 04:28:47;;;;;;;6.70;6.10;;;;;;;;;;4974713;28;20050;-83
2022/05/03 04:31:19;;;;;;;6.10;5.60;;;;;;;;;;4974118;28;20141;-82
2022/05/03 04:33:48;;;;;;;5.90;5.28;;;;;;;;;;4991903;28;20049;-83
2022/05/03 04:36:22;;;;;;;5.93;5.43;;;;;;;;;;4976007;28;20049;-83
2022/05/03 04:38:52;;;;;;;6.50;5.70;;;;;;;;;;4974223;28;20122;-83
2022/05/03 04:41:23;;;;;;;5.80;5.40;;;;;;;;;;4988802;28;20046;-82
2022/05/03 04:43:53;;;;;;;5.55;5.15;;;;;;;;;;4957325;28;20097;-82
2022/05/03 04:46:21;;;;;;;5.85;5.35;;;;;;;;;;4986552;28;20068;-83
2022/05/03 04:48:50;;;;;;;5.88;5.38;;;;;;;;;;4985485;28;20050;-83
2022/05/03 04:51:26;;;;;;;6.50;5.90;;;;;;;;;;4976911;28;20039;-83
2022/05/03 04:53:57;;;;;;;6.53;5.40;;;;;;;;;;4969633;28;20138;-83
2022/05/03 04:56:28;;;;;;;6.10;5.60;;;;;;;;;;4981572;28;20034;-83
2022/05/03 04:59:17;;;;;;;5.85;5.45;;;;;;;;;;4973680;28;20062;-83
2022/05/03 05:02:02;;;;;;;;;;;;;;;;;;4991573;28;20034;-83
2022/05/03 05:04:34;;;;;;;7.97;5.80;;;;;;;;;;4940490;28;19929;-82
2022/05/03 05:07:07;;;;;;;6.00;5.50;;;;;;;;;;4992237;28;20046;-87
2022/05/03 05:10:22;;;;;;;5.85;5.35;;;;;;;;;;4975582;28;20405;-83
2022/05/03 05:12:33;;;;;;;6.70;5.82;;;;;;;;;;4976220;28;20042;-84
2022/05/03 05:15:00;;;;;;;6.57;5.80;;;;;;;;;;4986617;28;20477;-83
2022/05/03 05:17:36;;;;;;;7.75;6.40;;;;;;;;;;4975745;28;20038;-84
2022/05/03 05:20:10;;;;;;;5.97;5.43;;;;;;;;;;4958475;28;20050;-84
2022/05/03 05:22:47;;;;;;;5.85;5.38;;;;;;;;;;4999121;28;20073;-84
2022/05/03 05:25:38;;;;;;;7.07;5.82;;;;;;;;;;4984136;28;20029;-84
2022/05/03 05:28:18;;;;;;;6.97;5.57;;;;;;;;;;4980588;28;20120;-83
2022/05/03 05:30:54;;;;;;;5.93;5.43;;;;;;;;;;4961042;28;20141;-83
2022/05/03 05:33:45;;;;;;;7.60;5.80;;;;;;;;;;4949868;28;20046;-83
2022/05/03 05:36:53;;;;;;;6.65;5.82;;;;;;;;;;4983696;28;20039;-83
2022/05/03 05:39:38;;;;;;;6.50;6.00;;;;;;;;;;4980586;28;20489;-83
2022/05/03 05:42:16;;;;;;;6.65;5.30;;;;;;;;;;4981366;28;20034;-83
2022/05/03 05:45:17;;;;;;;7.15;6.55;;;;;;;;;;4977671;28;20077;-83
2022/05/03 05:48:52;;;;;;;9.25;6.57;;;;;;;;;;4981456;28;20063;-84
2022/05/03 05:55:31;;;;;;;6.97;6.47;;;;;;;;;;4995671;28;20052;-83
2022/05/03 05:58:01;;;;;;;7.07;6.10;;;;;;;;;;4972166;28;20046;-84
2022/05/03 06:00:47;;;;;;;6.22;5.72;;;;;;;;;;4990127;28;20050;-83
2022/05/03 06:03:44;;;;;;;7.45;6.85;;;;;;;;;;4999628;28;20042;-84
2022/05/03 06:06:16;;;;;;;8.30;6.78;;;;;;;;;;5017277;28;20035;-83
2022/05/03 06:09:01;;;;;;;7.80;7.10;;;;;;;;;;5017638;28;20090;-83
2022/05/03 06:11:38;;;;;;;7.47;6.88;;;;;;;;;;4990526;28;20066;-83
2022/05/03 06:14:40;;;;;;;7.55;6.95;;;;;;;;;;4991572;28;20038;-83
2022/05/03 06:18:04;;;;;;;7.38;6.78;;;;;;;;;;4931270;29;20040;-85
2022/05/03 06:25:28;;;;;;;9.73;8.57;;;;;;;;;;4936093;29;20043;-84
2022/05/03 06:28:44;;;;;;;9.70;8.23;;;;;;;;;;4925642;29;20062;-83
2022/05/03 06:31:50;;;;;;;9.80;9.00;;;;;;;;;;4890575;29;20044;-82
2022/05/03 06:34:26;;;;;;;8.48;7.78;;;;;;;;;;4899651;29;20563;-84
2022/05/03 06:37:13;;;;;;;8.57;7.35;;;;;;;;;;4898643;29;20051;-84
2022/05/03 06:40:17;;;;;;;9.18;8.38;;;;;;;;;;4921947;28;20075;-84
2022/05/03 06:44:00;;;;;;;;;;;;;;;;;;;;;
2022/05/03 06:50:36;;;;;;;8.88;8.15;;;;;;;;;;4943511;28;20174;-83
2022/05/03 06:53:04;;;;;;;9.00;8.00;;;;;;;;;;4956365;28;20066;-84
2022/05/03 06:55:32;;;;;;;8.90;7.93;;;;;;;;;;4972258;28;20425;-84
2022/05/03 06:58:02;;;;;;;9.07;8.30;;;;;;;;;;4971993;28;20421;-84
2022/05/03 07:00:33;;;;;;;9.23;7.65;;;;;;;;;;4972521;28;20038;-84
2022/05/03 07:03:01;;;;;;;8.23;7.43;;;;;;;;;;4990313;28;20057;-84
2022/05/03 07:05:29;;;;;;;8.13;7.53;;;;;;;;;;4974175;28;20046;-84
2022/05/03 07:07:57;;;;;;;8.70;7.90;;;;;;;;;;4959050;28;20124;-84
2022/05/03 07:10:25;;;;;;;9.10;8.30;;;;;;;;;;4992067;28;20074;-83
2022/05/03 07:12:53;;;;;;;8.90;8.02;;;;;;;;;;4943720;28;20050;-84
2022/05/03 07:15:21;;;;;;;9.25;8.45;;;;;;;;;;4993543;28;20054;-83
2022/05/03 07:23:26;;;;;;;12.02;10.82;;;;;;;;;;4968141;28;20449;-84
2022/05/03 07:25:54;;;;;;;9.70;8.80;;;;;;;;;;4960230;28;20471;-84
2022/05/03 07:28:21;;;;;;;9.38;8.35;;;;;;;;;;4979062;28;20044;-84
2022/05/03 07:30:49;;;;;;;9.23;8.32;;;;;;;;;;4996398;28;20066;-84
2022/05/03 07:33:17;;;;;;;9.40;8.55;;;;;;;;;;4962565;28;20081;-83
2022/05/03 07:35:44;;;;;;;8.40;7.70;;;;;;;;;;4960664;28;20047;-84
2022/05/03 07:38:16;;;;;;;8.68;7.88;;;;;;;;;;4974658;28;20043;-85
2022/05/03 07:40:47;;;;;;;11.00;7.60;;;;;;;;;;4980495;28;20050;-84
2022/05/03 07:43:15;;;;;;;8.32;7.63;;;;;;;;;;4996605;28;20050;-85
2022/05/03 07:45:45;;;;;;;9.75;7.57;;;;;;;;;;4963758;28;20675;-85
2022/05/03 07:48:14;;;;;;;8.32;7.53;;;;;;;;;;4997669;28;20053;-85
2022/05/03 07:50:44;;;;;;;8.25;7.45;;;;;;;;;;4968821;28;20056;-84
2022/05/03 07:53:14;;;;;;;7.60;6.97;;;;;;;;;;5017027;28;20126;-84
2022/05/03 07:55:45;;;;;;;7.68;6.97;;;;;;;;;;4999052;28;20655;-84
2022/05/03 07:58:21;;;;;;;7.60;7.00;;;;;;;;;;4979338;28;20050;-85
2022/05/03 08:00:55;;;;;;;;;;;;;;;;;;4980427;28;20046;-84
2022/05/03 08:03:22;;;;;;;9.75;7.38;;;;;;;;;;4996622;28;20262;-85
2022/05/03 08:05:50;;;;;;;7.57;6.88;;;;;;;;;;4996567;28;20042;-84
2022/05/03 08:08:18;;;;;;;10.75;6.80;;;;;;;;;;4996836;28;20398;-85
2022/05/03 08:10:47;;;;;;;7.53;6.88;;;;;;;;;;4996396;28;20066;-84
2022/05/03 08:13:15;;;;;;;6.88;6.32;;;;;;;;;;4979487;28;20038;-84
2022/05/03 08:15:42;;;;;;;6.40;5.93;;;;;;;;;;4997165;28;20101;-85
2022/05/03 08:18:10;;;;;;;6.88;6.28;;;;;;;;;;4996725;28;20054;-85
2022/05/03 08:20:39;;;;;;;6.75;6.13;;;;;;;;;;4996589;28;20058;-85
2022/05/03 08:23:07;;;;;;;6.47;5.90;;;;;;;;;;4983973;28;20058;-84
2022/05/03 08:25:37;;;;;;;6.95;6.25;;;;;;;;;;5003508;28;20110;-84
2022/05/03 08:28:05;;;;;;;6.63;5.85;;;;;;;;;;5002846;28;20056;-85
2022/05/03 08:30:34;;;;;;;6.25;5.75;;;;;;;;;;4983680;28;20045;-84
2022/05/03 08:33:04;;;;;;;5.93;5.43;;;;;;;;;;4983665;28;20050;-84
2022/05/03 08:35:35;;;;;;;10.82;5.80;;;;;;;;;;4982951;28;20058;-84
2022/05/03 08:43:41;;;;;;;6.82;5.53;;;;;;;;;;5000400;28;20133;-84
2022/05/03 08:46:09;;;;;;;8.25;6.10;;;;;;;;;;5000722;28;20046;-84
2022/05/03 08:48:40;;;;;;;5.68;5.18;;;;;;;;;;4973824;28;20050;-84
2022/05/03 08:51:11;;;;;;;5.63;5.22;;;;;;;;;;4961004;28;20057;-84
2022/05/03 08:53:42;;;;;;;5.20;4.80;;;;;;;;;;5004382;28;20034;-84
2022/05/03 08:56:09;;;;;;;10.40;5.63;;;;;;;;;;4985369;28;20473;-85
2022/05/03 08:58:39;;;;;;;7.00;5.15;;;;;;;;;;4985067;28;20080;-85
2022/05/03 09:01:10;;;;;;;7.93;5.40;;;;;;;;;;5000564;28;20046;-86
2022/05/03 09:03:39;;;;;;;5.30;4.82;;;;;;;;;;4984408;28;20050;-85
2022/05/03 09:06:08;;;;;;;5.75;5.10;;;;;;;;;;4979007;23;20050;-81
2022/05/03 09:08:35;;;;;;;5.85;4.95;;;;;;;;;;4998034;28;20038;-82
2022/05/03 09:11:13;;;;;;;5.50;5.00;;;;;;;;;;4995459;28;20038;-83
2022/05/03 09:13:40;;;;;;;5.82;5.32;;;;;;;;;;4995853;28;20721;-81
2022/05/03 09:16:14;;;;;;;5.80;5.30;;;;;;;;;;4993790;28;20050;-81
2022/05/03 09:18:41;;;;;;;9.40;5.43;;;;;;;;;;4979794;28;20057;-82
2022/05/03 09:24:13;;;;;;;6.28;5.43;;;;;;;;;;4973374;28;20058;-83
2022/05/03 09:26:40;;;;;;;6.38;5.82;;;;;;;;;;4996206;28;20049;-82
2022/05/03 09:29:09;;;;;;;6.85;5.50;;;;;;;;;;5007546;28;20042;-79
2022/05/03 09:31:39;;;;;;;9.35;5.93;;;;;;;;;;4988763;28;20076;-82
2022/05/03 09:34:25;;;;;;;6.75;5.15;;;;;;;;;;5011493;28;20034;-81
2022/05/03 09:37:00;;;;;;;6.32;5.82;;;;;;;;;;5008730;28;20038;-81
2022/05/03 09:39:47;;;;;;;5.65;5.07;;;;;;;;;;5008968;28;20038;-81
2022/05/03 09:42:19;;;;;;;5.65;5.22;;;;;;;;;;5010832;28;20106;-82
2022/05/03 09:45:03;;;;;;;6.28;5.78;;;;;;;;;;4976105;28;20096;-82
2022/05/03 09:47:34;;;;;;;5.32;4.93;;;;;;;;;;4993611;28;20062;-82
2022/05/03 09:50:01;;;;;;;5.10;4.38;;;;;;;;;;4992170;28;20109;-83
2022/05/03 09:52:35;;;;;;;5.45;5.00;;;;;;;;;;4995043;28;20109;-82
2022/05/03 09:55:10;;;;;;;6.05;5.45;;;;;;;;;;4994994;28;20121;-82
2022/05/03 09:57:45;;;;;;;4.85;4.45;;;;;;;;;;4994397;28;20069;-83
2022/05/03 10:00:17;;;;;;;4.65;4.35;;;;;;;;;;4995532;28;20078;-82
2022/05/03 10:02:45;;;;;;;;;;;;;;;;;;4997107;28;20065;-83
2022/05/03 10:05:15;;;;;;;5.15;4.13;;;;;;;;;;4961891;28;20012;-81
2022/05/03 10:07:43;;;;;;;5.00;4.50;;;;;;;;;;4994701;28;20518;-81
2022/05/03 10:10:11;;;;;;;4.88;4.50;;;;;;;;;;4993980;28;20043;-82
2022/05/03 10:12:39;;;;;;;7.30;4.50;;;;;;;;;;4980652;28;20444;-83
2022/05/03 10:15:06;;;;;;;5.18;4.03;;;;;;;;;;4997261;28;20077;-82
2022/05/03 10:20:46;;;;;;;3.95;3.65;;;;;;;;;;5014094;28;20113;-82
2022/05/03 10:23:19;;;;;;;3.50;3.20;;;;;;;;;;4997515;28;20104;-82
2022/05/03 10:25:47;;;;;;;4.20;3.90;;;;;;;;;;4993581;28;20042;-83
2022/05/03 10:28:14;;;;;;;5.38;3.10;;;;;;;;;;4993057;28;20046;-82
2022/05/03 10:31:02;;;;;;;7.78;3.58;;;;;;;;;;4998539;28;20041;-82
2022/05/03 10:33:29;;;;;;;3.30;3.00;;;;;;;;;;4969638;28;20043;-81
2022/05/03 10:35:58;;;;;;;3.13;2.80;;;;;;;;;;4996074;28;20050;-81
2022/05/03 10:38:38;;;;;;;2.90;2.70;;;;;;;;;;4978134;28;20082;-82
2022/05/03 10:41:09;;;;;;;6.90;3.05;;;;;;;;;;4997405;28;20061;-83
2022/05/03 10:43:37;;;;;;;2.97;2.67;;;;;;;;;;4991998;28;20084;-83
2022/05/03 10:46:13;;;;;;;3.03;2.50;;;;;;;;;;4988412;28;20069;-82
2022/05/03 10:48:41;;;;;;;5.38;2.58;;;;;;;;;;4992464;28;20068;-83
2022/05/03 10:51:14;;;;;;;3.22;2.33;;;;;;;;;;4997205;28;20042;-82
2022/05/03 10:54:01;;;;;;;5.28;2.30;;;;;;;;;;4976129;28;20676;-80
2022/05/03 10:56:29;;;;;;;2.15;2.05;;;;;;;;;;4966710;28;20140;-80
2022/05/03 10:59:08;;;;;;;2.25;2.08;;;;;;;;;;4945230;28;20388;-80
2022/05/03 11:02:06;;;;;;;6.07;2.00;;;;;;;;;;4950933;28;20058;-82
2022/05/03 11:04:37;;;;;;;2.08;1.98;;;;;;;;;;4975032;28;20047;-81
2022/05/03 11:07:05;;;;;;;2.92;1.85;;;;;;;;;;4978485;28;20058;-80
2022/05/03 11:09:34;;;;;;;3.78;2.10;;;;;;;;;;4974234;28;20039;-80
2022/05/03 11:12:05;;;;;;;3.33;2.05;;;;;;;;;;4944946;28;20133;-80
2022/05/03 11:14:33;;;;;;;2.35;2.20;;;;;;;;;;4973507;28;20476;-80
2022/05/03 11:17:11;;;;;;;2.05;1.95;;;;;;;;;;4962087;28;20046;-81
2022/05/03 11:19:48;;;;;;;3.38;2.40;;;;;;;;;;4959885;28;20066;-81
2022/05/03 11:22:17;;;;;;;1.60;1.60;;;;;;;;;;4955472;28;20566;-82
2022/05/03 11:24:46;;;;;;;1.77;1.67;;;;;;;;;;4963705;28;20059;-80
2022/05/03 11:27:17;;;;;;;23.02;3.17;;;;;;;;;;4985919;28;20101;-81
2022/05/03 11:29:46;;;;;;;1.80;1.70;;;;;;;;;;4936463;28;20046;-79
2022/05/03 11:32:15;;;;;;;1.83;1.70;;;;;;;;;;4939085;28;20039;-81
2022/05/03 11:34:45;;;;;;;;;;;;;;;;;;4945194;28;20155;-80
2022/05/03 11:37:13;;;;;;;1.60;1.50;;;;;;;;;;4974380;28;19985;-81
2022/05/03 11:39:41;;;;;;;1.60;1.60;;;;;;;;;;4939894;28;20062;-80
2022/05/03 11:42:12;;;;;;;2.13;1.85;;;;;;;;;;4962694;28;20031;-81
2022/05/03 11:44:46;;;;;;;3.05;1.90;;;;;;;;;;4971017;28;20133;-82
2022/05/03 11:47:15;;;;;;;2.05;1.65;;;;;;;;;;4960538;28;20038;-82
2022/05/03 11:49:43;;;;;;;1.77;1.60;;;;;;;;;;4975185;28;20042;-81
2022/05/03 11:57:52;;;;;;;3.38;1.42;;;;;;;;;;4976461;28;20039;-81
2022/05/03 12:00:20;;;;;;;1.40;1.30;;;;;;;;;;4979238;28;20047;-81
2022/05/03 12:02:48;;;;;;;1.70;1.40;;;;;;;;;;4977707;28;20082;-81
2022/05/03 12:05:24;;;;;;;1.23;1.13;;;;;;;;;;4978784;28;20039;-81
2022/05/03 12:08:01;;;;;;;2.05;1.85;;;;;;;;;;4969772;28;20145;-81
2022/05/03 12:10:30;;;;;;;1.80;1.67;;;;;;;;;;4977595;28;20054;-82
2022/05/03 12:13:14;;;;;;;1.65;1.55;;;;;;;;;;4937666;28;20063;-80
2022/05/03 12:15:49;;;;;;;3.53;1.90;;;;;;;;;;4975529;28;20041;-80
2022/05/03 12:18:18;;;;;;;3.67;1.90;;;;;;;;;;4956105;28;20456;-81
2022/05/03 12:20:48;;;;;;;2.28;1.80;;;;;;;;;;4981644;28;20039;-80
2022/05/03 12:23:17;;;;;;;1.52;1.42;;;;;;;;;;4947949;28;20039;-80
2022/05/03 12:25:46;;;;;;;1.70;1.60;;;;;;;;;;4975791;28;20035;-81
2022/05/03 12:28:13;;;;;;;1.92;1.65;;;;;;;;;;4940624;28;20053;-80
2022/05/03 12:30:44;;;;;;;2.70;1.52;;;;;;;;;;4956168;28;20042;-81
2022/05/03 12:33:14;;;;;;;1.55;1.45;;;;;;;;;;4974110;28;20039;-82
2022/05/03 12:35:43;;;;;;;1.88;1.30;;;;;;;;;;4974373;28;20077;-80
2022/05/03 12:38:12;;;;;;;;;;;;;;;;;;4939316;28;20137;-80
2022/05/03 12:40:48;;;;;;;2.40;1.60;;;;;;;;;;4976580;28;19922;-82
2022/05/03 12:43:23;;;;;;;1.52;1.42;;;;;;;;;;4974670;28;20039;-81
2022/05/03 12:45:56;;;;;;;1.27;1.27;;;;;;;;;;4959725;28;20047;-82
2022/05/03 12:48:31;;;;;;;1.50;1.40;;;;;;;;;;4973099;28;20047;-84
2022/05/03 12:51:00;;;;;;;1.50;1.40;;;;;;;;;;4967326;28;20042;-82
2022/05/03 12:53:29;;;;;;;2.65;1.65;;;;;;;;;;4942034;28;20041;-81
2022/05/03 12:55:58;;;;;;;2.05;1.35;;;;;;;;;;4957773;28;20046;-81
2022/05/03 12:58:25;;;;;;;1.60;1.50;;;;;;;;;;4940768;28;20042;-81
2022/05/03 13:00:53;;;;;;;1.40;1.30;;;;;;;;;;4970789;28;20034;-81
2022/05/03 13:03:24;;;;;;;1.52;1.23;;;;;;;;;;4956009;28;20137;-81
2022/05/03 13:05:51;;;;;;;1.63;1.60;;;;;;;;;;4969377;28;20421;-79
2022/05/03 13:08:23;;;;;;;1.58;1.48;;;;;;;;;;4956132;28;20043;-85
2022/05/03 13:10:52;;;;;;;1.80;1.70;;;;;;;;;;4976628;28;20130;-82
2022/05/03 13:13:19;;;;;;;1.80;1.70;;;;;;;;;;4974281;28;20036;-82
2022/05/03 13:15:47;;;;;;;1.48;1.38;;;;;;;;;;4974778;28;20521;-83
2022/05/03 13:18:14;;;;;;;1.40;1.30;;;;;;;;;;4973226;28;20470;-83
2022/05/03 13:20:44;;;;;;;1.55;1.45;;;;;;;;;;4955384;28;20051;-82
2022/05/03 13:23:11;;;;;;;7.68;2.13;;;;;;;;;;4973669;28;20062;-80
2022/05/03 13:25:39;;;;;;;2.05;1.58;;;;;;;;;;4938752;28;20065;-82
2022/05/03 13:28:09;;;;;;;1.40;1.30;;;;;;;;;;4938816;28;20500;-82
2022/05/03 13:30:38;;;;;;;1.63;1.52;;;;;;;;;;4935637;28;20523;-82
2022/05/03 13:33:11;;;;;;;1.38;1.35;;;;;;;;;;4918669;28;20046;-80
2022/05/03 13:41:12;;;;;;;1.70;1.40;;;;;;;;;;4934548;28;20531;-80
2022/05/03 13:43:40;;;;;;;2.10;1.90;;;;;;;;;;4966900;28;20532;-81
2022/05/03 13:46:07;;;;;;;1.70;1.60;;;;;;;;;;4967218;28;20129;-80
2022/05/03 13:48:38;;;;;;;2.75;1.60;;;;;;;;;;4944521;28;20967;-80
2022/05/03 13:51:06;;;;;;;3.15;1.75;;;;;;;;;;4934670;28;20113;-80
2022/05/03 13:53:40;;;;;;;2.05;1.95;;;;;;;;;;4961152;28;20035;-79
2022/05/03 13:56:09;;;;;;;4.95;1.88;;;;;;;;;;4957928;28;20050;-80
2022/05/03 13:58:36;;;;;;;3.28;1.80;;;;;;;;;;4946499;28;20054;-80
2022/05/03 14:01:04;;;;;;;2.17;1.90;;;;;;;;;;4958681;28;20142;-80
2022/05/03 14:03:33;;;;;;;1.50;1.40;;;;;;;;;;4966331;28;20043;-81
2022/05/03 14:06:00;;;;;;;1.70;1.50;;;;;;;;;;4968092;28;20055;-81
2022/05/03 14:08:28;;;;;;;1.58;1.50;;;;;;;;;;4954237;28;20042;-81
2022/05/03 14:10:56;;;;;;;6.20;1.88;;;;;;;;;;4936290;28;20102;-80
2022/05/03 14:16:35;;;;;;;2.50;2.20;;;;;;;;;;1157294;22;20746;-84
2022/05/03 14:19:03;;;;;;;4.80;1.90;;;;;;;;;;4956940;28;20050;-85
2022/05/03 14:21:31;;;;;;;3.25;1.90;;;;;;;;;;4964771;28;20161;-84
2022/05/03 14:24:01;;;;;;;2.83;2.28;;;;;;;;;;4964283;28;20430;-83
2022/05/03 14:26:32;;;;;;;3.35;2.03;;;;;;;;;;4947795;28;20630;-84
2022/05/03 14:29:00;;;;;;;;;;;;;;;;;;4947541;28;20583;-84
2022/05/03 14:31:27;;;;;;;2.88;2.20;;;;;;;;;;4949063;28;19926;-83
2022/05/03 14:33:55;;;;;;;3.47;2.15;;;;;;;;;;4947067;28;20418;-84
2022/05/03 14:36:28;;;;;;;6.15;2.33;;;;;;;;;;4960811;28;20034;-84
2022/05/03 14:38:56;;;;;;;3.97;2.40;;;;;;;;;;4966186;28;20545;-85
2022/05/03 14:41:43;;;;;;;7.72;2.25;;;;;;;;;;4964807;28;20053;-85
2022/05/03 14:44:11;;;;;;;4.10;2.00;;;;;;;;;;4965113;28;20062;-84
2022/05/03 14:46:40;;;;;;;5.53;2.70;;;;;;;;;;4967187;28;20047;-85
2022/05/03 14:49:19;;;;;;;2.45;2.10;;;;;;;;;;4953143;28;20125;-84
2022/05/03 14:55:04;;;;;;;3.63;2.40;;;;;;;;;;4947427;28;20108;-84
2022/05/03 15:04:11;;;;;;;2.28;1.80;;;;;;;;;;4967988;28;20510;-85
2022/05/03 15:06:50;;;;;;;4.57;1.67;;;;;;;;;;4951229;28;20055;-84
2022/05/03 15:09:22;;;;;;;2.08;1.88;;;;;;;;;;4971889;28;20855;-84
2022/05/03 15:11:53;;;;;;;2.70;2.50;;;;;;;;;;4953833;28;20065;-85
2022/05/03 15:14:20;;;;;;;5.95;2.35;;;;;;;;;;4950621;28;20043;-84
2022/05/03 15:16:48;;;;;;;1.83;1.70;;;;;;;;;;4966702;28;20078;-83
2022/05/03 15:19:16;;;;;;;2.10;1.92;;;;;;;;;;4964564;28;20046;-84
2022/05/03 15:21:43;;;;;;;2.40;2.20;;;;;;;;;;4948060;28;20050;-83
2022/05/03 15:27:25;;;;;;;2.40;1.58;;;;;;;;;;4962599;28;20069;-84
2022/05/03 15:30:03;;;;;;;1.60;1.50;;;;;;;;;;4936488;28;20487;-84
2022/05/03 15:33:06;;;;;;;1.40;1.30;;;;;;;;;;4935178;28;20059;-83
2022/05/03 15:36:23;;;;;;;1.60;1.50;;;;;;;;;;4957489;28;20080;-84
2022/05/03 15:39:12;;;;;;;1.50;1.50;;;;;;;;;;4948197;28;20105;-83
2022/05/03 15:42:09;;;;;;;8.43;2.03;;;;;;;;;;4959954;28;20138;-84
2022/05/03 15:44:40;;;;;;;2.47;1.42;;;;;;;;;;4950833;28;20042;-85
2022/05/03 15:47:07;;;;;;;1.90;1.80;;;;;;;;;;4947353;28;20896;-82
2022/05/03 15:49:35;;;;;;;2.30;1.85;;;;;;;;;;4951008;28;20046;-84
2022/05/03 15:52:07;;;;;;;1.95;1.85;;;;;;;;;;4949433;28;20047;-83
2022/05/03 15:54:36;;;;;;;2.30;1.75;;;;;;;;;;4948441;28;20054;-84
2022/05/03 15:57:04;;;;;;;4.18;1.70;;;;;;;;;;4947220;28;20527;-83
2022/05/03 15:59:32;;;;;;;1.90;1.80;;;;;;;;;;4931881;28;20055;-85
2022/05/03 16:01:59;;;;;;;3.85;1.77;;;;;;;;;;4950576;28;20433;-83
2022/05/03 16:04:27;;;;;;;1.60;1.50;;;;;;;;;;4951952;28;20039;-84
2022/05/03 16:06:55;;;;;;;1.85;1.70;;;;;;;;;;4951754;28;20129;-84
2022/05/03 16:09:22;;;;;;;1.95;1.80;;;;;;;;;;4949439;28;20090;-84
2022/05/03 16:11:53;;;;;;;2.45;1.70;;;;;;;;;;4952026;28;20042;-85
2022/05/03 16:14:25;;;;;;;2.30;2.03;;;;;;;;;;4964236;28;20130;-84
2022/05/03 16:16:55;;;;;;;1.88;1.77;;;;;;;;;;4966664;28;20475;-83
2022/05/03 16:19:25;;;;;;;3.20;1.90;;;;;;;;;;4964110;28;20693;-84
2022/05/03 16:21:53;;;;;;;1.50;1.40;;;;;;;;;;4969851;28;20038;-84
2022/05/03 16:24:21;;;;;;;1.85;1.70;;;;;;;;;;4965736;28;20070;-84
2022/05/03 16:26:49;;;;;;;2.63;1.92;;;;;;;;;;4966345;28;20551;-83
2022/05/03 16:29:17;;;;;;;2.10;1.90;;;;;;;;;;4947013;28;20741;-83
2022/05/03 16:31:45;;;;;;;3.72;2.30;;;;;;;;;;4965141;28;20047;-83